createdAt,value
2019-04-01T00:00:28.212Z,97219.61
2019-04-01T00:01:33.462Z,97219.61
2019-04-01T00:02:37.130Z,97221.42
2019-04-01T00:03:40.761Z,97218.80
2019-04-01T00:04:44.395Z,97223.70
2019-04-01T00:05:48.036Z,97220.30
2019-04-01T00:06:51.673Z,97217.14
2019-04-01T00:07:55.316Z,97216.09
2019-04-01T00:08:58.938Z,97221.94
2019-04-01T00:10:02.574Z,97218.47
2019-04-01T00:11:06.204Z,97220.59
2019-04-01T00:12:09.911Z,97220.84
2019-04-01T00:13:13.574Z,97221.48
2019-04-01T00:14:17.202Z,97222.03
2019-04-01T00:15:20.852Z,97218.50
2019-04-01T00:16:24.857Z,97216.86
2019-04-01T00:17:28.482Z,97220.92
2019-04-01T00:18:32.221Z,97219.77
2019-04-01T00:19:35.790Z,97221.31
2019-04-01T00:20:41.335Z,97221.31
2019-04-01T00:21:44.933Z,97219.98
2019-04-01T00:22:48.728Z,97222.28
2019-04-01T00:23:52.629Z,97222.28
2019-04-01T00:24:56.265Z,97224.08
2019-04-01T00:25:59.903Z,97216.05
2019-04-01T00:27:03.537Z,97224.63
2019-04-01T00:28:07.103Z,97226.75
2019-04-01T00:29:10.793Z,97226.75
2019-04-01T00:30:14.853Z,97223.38
2019-04-01T00:31:18.432Z,97223.94
2019-04-01T00:32:21.986Z,97217.00
2019-04-01T00:33:26.006Z,97219.13
2019-04-01T00:34:30.000Z,97222.97
2019-04-01T00:35:33.630Z,97221.55
2019-04-01T00:36:37.243Z,97215.89
2019-04-01T00:37:40.871Z,97215.16
2019-04-01T00:38:44.904Z,97215.16
2019-04-01T00:39:48.553Z,97218.13
2019-04-01T00:40:52.205Z,97220.22
2019-04-01T00:42:06.626Z,97221.94
2019-04-01T00:43:28.070Z,97219.02
2019-04-01T00:44:31.628Z,97220.94
2019-04-01T00:45:36.976Z,97223.95
2019-04-01T00:46:40.551Z,97225.97
2019-04-01T00:47:44.185Z,97229.27
2019-04-01T00:48:47.822Z,97223.33
2019-04-01T00:49:51.445Z,97232.39
2019-04-01T00:50:55.101Z,97225.65
2019-04-01T00:51:58.734Z,97225.81
2019-04-01T00:53:02.299Z,97226.71
2019-04-01T00:54:05.947Z,97224.90
2019-04-01T00:55:09.581Z,97226.34
2019-04-01T00:56:13.193Z,97226.34
2019-04-01T00:57:16.851Z,97219.66
2019-04-01T00:58:20.389Z,97225.95
2019-04-01T00:59:24.028Z,97221.09
2019-04-01T01:00:27.730Z,97225.56
2019-04-01T01:01:31.388Z,97223.38
2019-04-01T01:02:34.965Z,97225.41
2019-04-01T01:03:38.590Z,97223.32
2019-04-01T01:04:42.160Z,97233.44
2019-04-01T01:05:45.780Z,97239.03
2019-04-01T01:06:49.445Z,97227.79
2019-04-01T01:07:53.076Z,97225.20
2019-04-01T01:08:56.708Z,97239.17
2019-04-01T01:10:00.510Z,97236.89
2019-04-01T01:11:04.164Z,97241.47
2019-04-01T01:12:07.905Z,97241.33
2019-04-01T01:13:11.482Z,97244.67
2019-04-01T01:14:15.113Z,97241.30
2019-04-01T01:15:18.754Z,97244.14
2019-04-01T01:16:22.380Z,97244.02
2019-04-01T01:17:26.087Z,97241.09
2019-04-01T01:18:29.665Z,97249.60
2019-04-01T01:19:33.290Z,97246.88
2019-04-01T01:20:36.918Z,97244.97
2019-04-01T01:21:40.557Z,97243.47
2019-04-01T01:22:44.219Z,97242.92
2019-04-01T01:23:47.857Z,97246.81
2019-04-01T01:24:51.486Z,97247.48
2019-04-01T01:25:55.112Z,97242.00
2019-04-01T01:26:58.738Z,97242.00
2019-04-01T01:28:02.402Z,97238.62
2019-04-01T01:29:06.038Z,97243.96
2019-04-01T01:30:09.970Z,97241.30
2019-04-01T01:31:13.538Z,97242.13
2019-04-01T01:32:17.179Z,97240.75
2019-04-01T01:33:20.767Z,97239.00
2019-04-01T01:34:24.401Z,97238.84
2019-04-01T01:35:28.035Z,97240.56
2019-04-01T01:36:31.675Z,97240.36
2019-04-01T01:37:35.230Z,97241.57
2019-04-01T01:38:38.899Z,97243.27
2019-04-01T01:39:42.522Z,97247.27
2019-04-01T01:40:46.150Z,97244.19
2019-04-01T01:41:49.776Z,97243.02
2019-04-01T01:42:53.404Z,97244.78
2019-04-01T01:43:57.061Z,97243.03
2019-04-01T01:45:00.633Z,97243.98
2019-04-01T01:46:04.253Z,97246.53
2019-04-01T01:47:07.885Z,97251.28
2019-04-01T01:48:11.517Z,97244.83
2019-04-01T01:49:15.199Z,97247.74
2019-04-01T01:50:18.819Z,97248.48
2019-04-01T01:51:22.450Z,97240.23
2019-04-01T01:52:26.089Z,97245.48
2019-04-01T01:53:29.717Z,97239.85
2019-04-01T01:54:33.313Z,97238.52
2019-04-01T01:55:37.298Z,97237.77
2019-04-01T01:56:40.936Z,97242.06
2019-04-01T01:57:44.923Z,97245.59
2019-04-01T01:58:48.485Z,97244.69
2019-04-01T01:59:52.144Z,97246.14
2019-04-01T02:00:57.246Z,97243.47
2019-04-01T02:02:00.884Z,97245.67
2019-04-01T02:03:04.533Z,97248.22
2019-04-01T02:04:08.162Z,97247.56
2019-04-01T02:05:11.813Z,97245.08
2019-04-01T02:06:15.441Z,97249.08
2019-04-01T02:07:19.122Z,97244.83
2019-04-01T02:08:22.674Z,97242.11
2019-04-01T02:09:26.383Z,97245.25
2019-04-01T02:10:30.012Z,97249.50
2019-04-01T02:11:34.070Z,97246.25
2019-04-01T02:12:37.812Z,97247.26
2019-04-01T02:13:41.866Z,97247.76
2019-04-01T02:14:45.504Z,97250.42
2019-04-01T02:15:49.137Z,97246.42
2019-04-01T02:16:52.772Z,97251.02
2019-04-01T02:17:56.436Z,97247.11
2019-04-01T02:19:00.066Z,97247.59
2019-04-01T02:20:04.193Z,97246.94
2019-04-01T02:21:07.827Z,97250.43
2019-04-01T02:22:11.453Z,97250.91
2019-04-01T02:23:15.062Z,97252.67
2019-04-01T02:24:18.701Z,97256.52
2019-04-01T02:25:22.330Z,97251.55
2019-04-01T02:26:25.970Z,97259.44
2019-04-01T02:27:29.523Z,97262.55
2019-04-01T02:28:33.164Z,97261.94
2019-04-01T02:29:36.809Z,97261.64
2019-04-01T02:30:40.443Z,97261.89
2019-04-01T02:31:44.118Z,97260.81
2019-04-01T02:32:47.751Z,97261.60
2019-04-01T02:33:51.393Z,97264.06
2019-04-01T02:34:54.956Z,97263.27
2019-04-01T02:35:58.596Z,97264.02
2019-04-01T02:37:02.300Z,97261.75
2019-04-01T02:38:05.907Z,97267.59
2019-04-01T02:39:09.551Z,97268.59
2019-04-01T02:40:13.186Z,97264.00
2019-04-01T02:41:16.819Z,97268.55
2019-04-01T02:42:20.481Z,97272.62
2019-04-01T02:43:24.187Z,97269.19
2019-04-01T02:44:27.820Z,97263.41
2019-04-01T02:45:31.456Z,97273.75
2019-04-01T02:46:35.083Z,97269.69
2019-04-01T02:47:38.752Z,97270.08
2019-04-01T02:48:42.387Z,97265.54
2019-04-01T02:49:46.005Z,97263.56
2019-04-01T02:50:49.642Z,97271.75
2019-04-01T02:51:53.274Z,97266.03
2019-04-01T02:52:56.943Z,97267.51
2019-04-01T02:54:00.569Z,97264.95
2019-04-01T02:55:06.913Z,97268.44
2019-04-01T02:56:10.911Z,97267.52
2019-04-01T02:57:14.539Z,97267.09
2019-04-01T02:58:18.196Z,97272.05
2019-04-01T02:59:21.830Z,97275.13
2019-04-01T03:00:25.470Z,97267.45
2019-04-01T03:01:29.104Z,97267.55
2019-04-01T03:02:32.730Z,97277.81
2019-04-01T03:03:36.400Z,97272.14
2019-04-01T03:04:40.042Z,97274.52
2019-04-01T03:05:43.684Z,97278.58
2019-04-01T03:06:47.316Z,97270.48
2019-04-01T03:07:51.016Z,97270.63
2019-04-01T03:08:54.620Z,97271.11
2019-04-01T03:09:58.181Z,97274.88
2019-04-01T03:11:01.893Z,97277.19
2019-04-01T03:12:05.524Z,97268.11
2019-04-01T03:13:09.158Z,97272.95
2019-04-01T03:14:12.832Z,97277.08
2019-04-01T03:15:16.468Z,97277.69
2019-04-01T03:16:20.105Z,97273.37
2019-04-01T03:17:23.742Z,97277.05
2019-04-01T03:18:27.382Z,97276.77
2019-04-01T03:19:31.051Z,97271.78
2019-04-01T03:20:35.010Z,97276.16
2019-04-01T03:21:38.608Z,97278.73
2019-04-01T03:22:42.243Z,97277.05
2019-04-01T03:23:51.715Z,97272.20
2019-04-01T03:24:55.389Z,97276.93
2019-04-01T03:25:59.029Z,97275.89
2019-04-01T03:27:02.661Z,97277.47
2019-04-01T03:28:06.297Z,97282.52
2019-04-01T03:29:10.187Z,97280.87
2019-04-01T03:30:13.846Z,97284.58
2019-04-01T03:31:17.471Z,97277.12
2019-04-01T03:32:21.097Z,97279.00
2019-04-01T03:33:24.735Z,97284.76
2019-04-01T03:34:28.393Z,97288.70
2019-04-01T03:35:32.040Z,97290.78
2019-04-01T03:36:35.660Z,97288.30
2019-04-01T03:37:39.302Z,97284.25
2019-04-01T03:38:42.874Z,97292.03
2019-04-01T03:39:46.497Z,97286.28
2019-04-01T03:40:50.169Z,97291.70
2019-04-01T03:41:53.810Z,97292.41
2019-04-01T03:42:57.681Z,97290.24
2019-04-01T03:44:01.384Z,97289.09
2019-04-01T03:45:06.416Z,97286.88
2019-04-01T03:46:10.168Z,97285.75
2019-04-01T03:47:13.797Z,97287.34
2019-04-01T03:48:17.420Z,97280.94
2019-04-01T03:49:21.061Z,97287.84
2019-04-01T03:50:24.755Z,97291.41
2019-04-01T03:51:28.420Z,97289.50
2019-04-01T03:52:32.056Z,97292.39
2019-04-01T03:53:36.001Z,97288.76
2019-04-01T03:54:39.629Z,97296.59
2019-04-01T03:55:43.182Z,97295.26
2019-04-01T03:56:47.239Z,97292.83
2019-04-01T03:57:50.871Z,97296.81
2019-04-01T03:58:54.438Z,97301.91
2019-04-01T03:59:58.097Z,97295.14
2019-04-01T04:01:01.716Z,97297.42
2019-04-01T04:02:05.365Z,97294.35
2019-04-01T04:03:08.996Z,97299.54
2019-04-01T04:04:13.021Z,97298.41
2019-04-01T04:05:16.622Z,97298.95
2019-04-01T04:06:20.269Z,97294.09
2019-04-01T04:07:23.937Z,97298.56
2019-04-01T04:08:27.597Z,97294.64
2019-04-01T04:09:31.149Z,97295.91
2019-04-01T04:10:35.565Z,97292.48
2019-04-01T04:11:39.196Z,97294.38
2019-04-01T04:12:42.938Z,97297.56
2019-04-01T04:13:46.605Z,97301.48
2019-04-01T04:14:51.429Z,97302.33
2019-04-01T04:15:55.496Z,97297.36
2019-04-01T04:16:59.247Z,97302.94
2019-04-01T04:18:02.948Z,97309.66
2019-04-01T04:19:06.681Z,97306.20
2019-04-01T04:20:10.588Z,97308.20
2019-04-01T04:21:14.702Z,97309.70
2019-04-01T04:22:18.878Z,97310.37
2019-04-01T04:23:22.542Z,97312.76
2019-04-01T04:24:26.169Z,97318.28
2019-04-01T04:25:29.885Z,97318.56
2019-04-01T04:26:33.821Z,97316.22
2019-04-01T04:27:37.546Z,97318.92
2019-04-01T04:28:41.230Z,97323.19
2019-04-01T04:29:44.853Z,97324.25
2019-04-01T04:30:48.568Z,97331.80
2019-04-01T04:31:52.199Z,97333.72
2019-04-01T04:32:55.832Z,97331.17
2019-04-01T04:33:59.791Z,97330.52
2019-04-01T04:35:03.840Z,97331.64
2019-04-01T04:36:07.960Z,97329.39
2019-04-01T04:37:11.613Z,97326.78
2019-04-01T04:38:15.255Z,97323.38
2019-04-01T04:39:19.000Z,97328.20
2019-04-01T04:40:22.644Z,97327.89
2019-04-01T04:41:26.296Z,97329.97
2019-04-01T04:42:30.000Z,97326.25
2019-04-01T04:43:36.266Z,97328.86
2019-04-01T04:44:39.913Z,97324.41
2019-04-01T04:45:43.566Z,97327.67
2019-04-01T04:46:47.281Z,97330.90
2019-04-01T04:47:50.921Z,97330.10
2019-04-01T04:48:54.630Z,97327.41
2019-04-01T04:49:58.561Z,97327.98
2019-04-01T04:51:02.227Z,97330.14
2019-04-01T04:52:05.864Z,97332.27
2019-04-01T04:53:09.615Z,97335.14
2019-04-01T04:54:13.267Z,97334.34
2019-04-01T04:55:18.534Z,97335.72
2019-04-01T04:56:22.270Z,97331.20
2019-04-01T04:57:25.912Z,97334.66
2019-04-01T04:58:29.678Z,97334.66
2019-04-01T04:59:33.324Z,97333.09
2019-04-01T05:00:37.033Z,97336.52
2019-04-01T05:01:40.754Z,97335.14
2019-04-01T05:02:44.558Z,97338.86
2019-04-01T05:03:48.206Z,97335.45
2019-04-01T05:04:51.921Z,97335.45
2019-04-01T05:05:55.636Z,97343.63
2019-04-01T05:07:00.942Z,97344.12
2019-04-01T05:08:04.630Z,97341.70
2019-04-01T05:09:09.151Z,97345.44
2019-04-01T05:10:12.792Z,97349.39
2019-04-01T05:11:16.442Z,97348.59
2019-04-01T05:12:21.698Z,97351.69
2019-04-01T05:13:25.451Z,97345.62
2019-04-01T05:14:29.091Z,97346.62
2019-04-01T05:15:35.341Z,97349.71
2019-04-01T05:16:39.068Z,97351.08
2019-04-01T05:17:42.734Z,97355.03
2019-04-01T05:18:46.336Z,97340.63
2019-04-01T05:19:50.436Z,97348.27
2019-04-01T05:20:55.062Z,97348.53
2019-04-01T05:21:59.541Z,97353.00
2019-04-01T05:23:04.282Z,97351.72
2019-04-01T05:24:08.423Z,97354.32
2019-04-01T05:25:13.738Z,97357.14
2019-04-01T05:26:22.224Z,97350.45
2019-04-01T05:27:26.733Z,97351.03
2019-04-01T05:28:30.740Z,97356.66
2019-04-01T05:29:35.776Z,97346.99
2019-04-01T05:30:40.489Z,97348.66
2019-04-01T05:31:46.889Z,97354.81
2019-04-01T05:32:52.641Z,97353.44
2019-04-01T05:33:58.710Z,97351.62
2019-04-01T05:35:03.975Z,97353.22
2019-04-01T05:36:08.409Z,97357.73
2019-04-01T05:37:12.117Z,97351.41
2019-04-01T05:38:16.769Z,97352.64
2019-04-01T05:39:21.018Z,97355.50
2019-04-01T05:40:24.690Z,97360.33
2019-04-01T05:41:28.449Z,97350.70
2019-04-01T05:42:32.080Z,97356.60
2019-04-01T05:43:35.809Z,97355.02
2019-04-01T05:44:39.459Z,97355.82
2019-04-01T05:45:43.118Z,97354.27
2019-04-01T05:46:46.769Z,97359.31
2019-04-01T05:47:52.062Z,97352.73
2019-04-01T05:48:55.709Z,97347.10
2019-04-01T05:50:00.374Z,97345.77
2019-04-01T05:51:04.069Z,97345.19
2019-04-01T05:52:08.309Z,97340.06
2019-04-01T05:53:11.955Z,97340.86
2019-04-01T05:54:15.622Z,97340.80
2019-04-01T05:55:19.328Z,97336.55
2019-04-01T05:56:23.508Z,97341.29
2019-04-01T05:57:27.639Z,97341.75
2019-04-01T05:58:31.401Z,97336.37
2019-04-01T05:59:35.021Z,97343.21
2019-04-01T06:00:40.395Z,97344.10
2019-04-01T06:01:48.130Z,97342.22
2019-04-01T06:02:52.262Z,97349.41
2019-04-01T06:03:55.898Z,97341.16
2019-04-01T06:04:59.626Z,97339.56
2019-04-01T06:06:03.286Z,97344.02
2019-04-01T06:07:06.971Z,97343.13
2019-04-01T06:08:10.877Z,97343.80
2019-04-01T06:09:14.550Z,97344.82
2019-04-01T06:10:18.280Z,97345.98
2019-04-01T06:11:22.008Z,97345.77
2019-04-01T06:12:28.646Z,97342.67
2019-04-01T06:13:32.293Z,97346.45
2019-04-01T06:14:35.929Z,97349.83
2019-04-01T06:15:39.560Z,97340.58
2019-04-01T06:16:43.271Z,97345.48
2019-04-01T06:17:47.013Z,97339.45
2019-04-01T06:18:50.950Z,97340.76
2019-04-01T06:19:54.622Z,97343.61
2019-04-01T06:20:58.261Z,97341.45
2019-04-01T06:22:01.904Z,97342.70
2019-04-01T06:23:06.035Z,97338.83
2019-04-01T06:24:09.644Z,97342.63
2019-04-01T06:25:13.272Z,97339.42
2019-04-01T06:26:17.252Z,97338.53
2019-04-01T06:27:20.887Z,97335.33
2019-04-01T06:28:24.564Z,97337.91
2019-04-01T06:29:28.207Z,97331.14
2019-04-01T06:30:31.940Z,97332.67
2019-04-01T06:31:35.583Z,97334.05
2019-04-01T06:32:39.260Z,97328.63
2019-04-01T06:33:42.894Z,97328.27
2019-04-01T06:34:52.770Z,97332.72
2019-04-01T06:35:52.014Z,97330.31
2019-04-01T06:36:55.640Z,97333.19
2019-04-01T06:37:59.299Z,97332.56
2019-04-01T06:39:04.632Z,97334.77
2019-04-01T06:40:08.337Z,97333.70
2019-04-01T06:41:11.979Z,97333.33
2019-04-01T06:42:15.687Z,97337.96
2019-04-01T06:43:19.421Z,97337.49
2019-04-01T06:44:23.052Z,97335.52
2019-04-01T06:45:26.787Z,97332.03
2019-04-01T06:46:30.421Z,97335.91
2019-04-01T06:47:34.055Z,97330.14
2019-04-01T06:48:37.722Z,97330.31
2019-04-01T06:49:41.661Z,97329.41
2019-04-01T06:50:45.296Z,97325.31
2019-04-01T06:51:48.938Z,97322.88
2019-04-01T06:52:52.573Z,97319.78
2019-04-01T06:53:56.249Z,97326.22
2019-04-01T06:54:59.893Z,97326.45
2019-04-01T06:56:03.539Z,97331.59
2019-04-01T06:57:07.187Z,97326.31
2019-04-01T06:58:12.067Z,97321.84
2019-04-01T06:59:16.004Z,97326.30
2019-04-01T07:00:19.746Z,97335.41
2019-04-01T07:01:23.397Z,97330.88
2019-04-01T07:02:27.140Z,97329.86
2019-04-01T07:03:30.768Z,97326.39
2019-04-01T07:04:34.442Z,97326.39
2019-04-01T07:05:38.086Z,97329.92
2019-04-01T07:06:41.761Z,97329.78
2019-04-01T07:07:45.428Z,97321.78
2019-04-01T07:08:49.079Z,97329.68
2019-04-01T07:09:52.776Z,97326.78
2019-04-01T07:10:56.428Z,97326.78
2019-04-01T07:12:00.077Z,97322.76
2019-04-01T07:13:03.744Z,97322.76
2019-04-01T07:14:07.423Z,97328.72
2019-04-01T07:15:11.435Z,97326.45
2019-04-01T07:16:16.142Z,97325.58
2019-04-01T07:17:20.086Z,97328.29
2019-04-01T07:18:23.931Z,97328.29
2019-04-01T07:19:27.636Z,97324.07
2019-04-01T07:20:31.375Z,97323.17
2019-04-01T07:21:35.226Z,97321.19
2019-04-01T07:22:38.877Z,97320.83
2019-04-01T07:23:42.541Z,97320.66
2019-04-01T07:24:46.234Z,97313.36
2019-04-01T07:25:50.313Z,97319.33
2019-04-01T07:26:53.992Z,97314.59
2019-04-01T07:27:57.663Z,97310.08
2019-04-01T07:29:01.325Z,97313.61
2019-04-01T07:30:06.808Z,97316.20
2019-04-01T07:31:10.465Z,97310.14
2019-04-01T07:32:14.642Z,97308.95
2019-04-01T07:33:18.458Z,97308.95
2019-04-01T07:34:22.297Z,97307.59
2019-04-01T07:35:26.023Z,97304.55
2019-04-01T07:36:29.700Z,97304.17
2019-04-01T07:37:33.360Z,97302.52
2019-04-01T07:38:37.215Z,97302.06
2019-04-01T07:39:40.867Z,97302.91
2019-04-01T07:40:44.563Z,97301.00
2019-04-01T07:41:48.210Z,97298.24
2019-04-01T07:42:53.122Z,97297.31
2019-04-01T07:43:57.038Z,97298.00
2019-04-01T07:45:00.694Z,97302.70
2019-04-01T07:46:07.877Z,97293.55
2019-04-01T07:47:09.760Z,97295.75
2019-04-01T07:48:13.415Z,97290.05
2019-04-01T07:49:17.076Z,97288.39
2019-04-01T07:50:20.729Z,97292.70
2019-04-01T07:51:24.438Z,97292.44
2019-04-01T07:52:28.113Z,97289.89
2019-04-01T07:53:33.654Z,97289.16
2019-04-01T07:54:37.689Z,97292.77
2019-04-01T07:55:41.442Z,97287.97
2019-04-01T07:56:45.212Z,97282.83
2019-04-01T07:57:48.888Z,97282.66
2019-04-01T07:58:52.721Z,97280.84
2019-04-01T07:59:57.166Z,97280.13
2019-04-01T08:01:00.924Z,97287.39
2019-04-01T08:02:04.622Z,97281.33
2019-04-01T08:03:12.007Z,97278.83
2019-04-01T08:04:15.647Z,97275.67
2019-04-01T08:05:19.395Z,97280.06
2019-04-01T08:06:23.065Z,97272.08
2019-04-01T08:07:26.735Z,97272.31
2019-04-01T08:08:30.387Z,97268.53
2019-04-01T08:09:34.441Z,97267.96
2019-04-01T08:10:38.202Z,97269.88
2019-04-01T08:11:41.771Z,97270.70
2019-04-01T08:12:45.489Z,97267.95
2019-04-01T08:13:49.168Z,97268.39
2019-04-01T08:14:53.014Z,97266.03
2019-04-01T08:15:56.695Z,97265.13
2019-04-01T08:17:00.340Z,97259.77
2019-04-01T08:18:04.032Z,97262.80
2019-04-01T08:19:08.177Z,97260.27
2019-04-01T08:20:12.252Z,97260.88
2019-04-01T08:21:18.827Z,97263.52
2019-04-01T08:22:22.500Z,97259.23
2019-04-01T08:23:26.199Z,97261.61
2019-04-01T08:24:29.866Z,97265.56
2019-04-01T08:25:33.517Z,97268.88
2019-04-01T08:26:37.173Z,97255.52
2019-04-01T08:27:40.874Z,97255.69
2019-04-01T08:28:44.545Z,97254.15
2019-04-01T08:29:48.185Z,97261.56
2019-04-01T08:30:52.207Z,97252.17
2019-04-01T08:31:55.843Z,97248.67
2019-04-01T08:32:59.461Z,97247.63
2019-04-01T08:34:03.326Z,97244.27
2019-04-01T08:35:07.491Z,97240.98
2019-04-01T08:36:11.162Z,97241.50
2019-04-01T08:37:14.794Z,97238.70
2019-04-01T08:38:22.831Z,97240.44
2019-04-01T08:39:26.522Z,97235.59
2019-04-01T08:40:30.158Z,97234.09
2019-04-01T08:41:33.801Z,97232.17
2019-04-01T08:42:37.543Z,97231.44
2019-04-01T08:43:41.668Z,97223.20
2019-04-01T08:44:45.298Z,97221.70
2019-04-01T08:45:48.951Z,97226.22
2019-04-01T08:46:52.592Z,97223.77
2019-04-01T08:47:56.407Z,97218.08
2019-04-01T08:49:02.628Z,97216.97
2019-04-01T08:50:07.268Z,97215.91
2019-04-01T08:51:10.951Z,97213.33
2019-04-01T08:52:14.954Z,97216.65
2019-04-01T08:53:18.620Z,97210.10
2019-04-01T08:54:22.951Z,97214.16
2019-04-01T08:55:26.635Z,97203.17
2019-04-01T08:56:31.913Z,97202.56
2019-04-01T08:57:35.525Z,97199.73
2019-04-01T08:58:39.470Z,97199.81
2019-04-01T08:59:43.303Z,97194.52
2019-04-01T09:00:47.341Z,97189.36
2019-04-01T09:01:51.197Z,97193.78
2019-04-01T09:02:55.630Z,97182.70
2019-04-01T09:03:59.603Z,97184.67
2019-04-01T09:05:03.275Z,97176.23
2019-04-01T09:06:07.133Z,97174.72
2019-04-01T09:07:11.307Z,97174.52
2019-04-01T09:08:14.964Z,97171.28
2019-04-01T09:09:18.639Z,97169.86
2019-04-01T09:10:22.293Z,97165.50
2019-04-01T09:11:27.601Z,97165.59
2019-04-01T09:12:35.899Z,97163.89
2019-04-01T09:13:39.800Z,97163.86
2019-04-01T09:14:44.598Z,97161.80
2019-04-01T09:15:48.682Z,97160.09
2019-04-01T09:16:52.879Z,97158.82
2019-04-01T09:17:56.530Z,97158.52
2019-04-01T09:19:00.191Z,97148.26
2019-04-01T09:20:04.248Z,97144.36
2019-04-01T09:21:07.872Z,97149.80
2019-04-01T09:22:11.579Z,97137.91
2019-04-01T09:23:15.572Z,97139.50
2019-04-01T09:24:19.233Z,97135.17
2019-04-01T09:25:22.877Z,97133.50
2019-04-01T09:26:26.507Z,97127.57
2019-04-01T09:27:30.209Z,97135.27
2019-04-01T09:28:33.862Z,97133.70
2019-04-01T09:29:37.836Z,97127.50
2019-04-01T09:30:41.481Z,97127.58
2019-04-01T09:31:45.155Z,97125.25
2019-04-01T09:32:48.882Z,97129.62
2019-04-01T09:33:52.435Z,97125.36
2019-04-01T09:34:56.196Z,97117.30
2019-04-01T09:35:59.853Z,97123.73
2019-04-01T09:37:03.593Z,97123.16
2019-04-01T09:38:07.314Z,97116.88
2019-04-01T09:39:11.186Z,97113.05
2019-04-01T09:40:14.841Z,97113.76
2019-04-01T09:41:18.496Z,97112.54
2019-04-01T09:42:22.541Z,97110.49
2019-04-01T09:43:26.217Z,97105.58
2019-04-01T09:44:36.526Z,97101.62
2019-04-01T09:45:35.447Z,97105.95
2019-04-01T09:46:40.545Z,97105.82
2019-04-01T09:47:44.354Z,97101.88
2019-04-01T09:48:47.970Z,97094.47
2019-04-01T09:49:51.753Z,97099.35
2019-04-01T09:50:55.385Z,97091.57
2019-04-01T09:51:59.055Z,97089.21
2019-04-01T09:53:02.845Z,97087.63
2019-04-01T09:54:09.285Z,97086.23
2019-04-01T09:55:13.103Z,97085.69
2019-04-01T09:56:16.765Z,97092.67
2019-04-01T09:57:20.397Z,97086.29
2019-04-01T09:58:24.081Z,97086.08
2019-04-01T09:59:27.743Z,97083.06
2019-04-01T10:00:31.408Z,97085.08
2019-04-01T10:01:35.041Z,97080.03
2019-04-01T10:02:38.758Z,97072.23
2019-04-01T10:03:42.410Z,97073.56
2019-04-01T10:04:46.068Z,97067.73
2019-04-01T10:05:49.715Z,97069.73
2019-04-01T10:06:53.360Z,97064.53
2019-04-01T10:07:57.071Z,97056.08
2019-04-01T10:09:00.739Z,97062.09
2019-04-01T10:10:05.475Z,97060.53
2019-04-01T10:11:12.465Z,97059.87
2019-04-01T10:12:14.543Z,97054.66
2019-04-01T10:13:18.340Z,97051.86
2019-04-01T10:14:22.010Z,97055.09
2019-04-01T10:15:26.007Z,97046.90
2019-04-01T10:16:29.722Z,97044.79
2019-04-01T10:17:33.356Z,97035.55
2019-04-01T10:18:37.037Z,97034.69
2019-04-01T10:19:40.678Z,97032.16
2019-04-01T10:20:44.714Z,97034.83
2019-04-01T10:21:48.348Z,97041.22
2019-04-01T10:22:51.991Z,97036.84
2019-04-01T10:23:55.689Z,97038.12
2019-04-01T10:24:59.340Z,97032.38
2019-04-01T10:26:02.992Z,97033.91
2019-04-01T10:27:06.637Z,97023.52
2019-04-01T10:28:10.286Z,97025.94
2019-04-01T10:29:14.037Z,97022.19
2019-04-01T10:30:17.968Z,97023.38
2019-04-01T10:31:29.058Z,97019.65
2019-04-01T10:32:34.266Z,97028.23
2019-04-01T10:33:38.043Z,97022.65
2019-04-01T10:34:41.677Z,97022.53
2019-04-01T10:35:45.304Z,97018.73
2019-04-01T10:36:48.941Z,97023.91
2019-04-01T10:37:53.016Z,97021.67
2019-04-01T10:38:56.797Z,97021.23
2019-04-01T10:40:00.883Z,97015.89
2019-04-01T10:41:04.810Z,97021.39
2019-04-01T10:42:08.533Z,97010.61
2019-04-01T10:43:12.510Z,97013.77
2019-04-01T10:44:16.319Z,97006.79
2019-04-01T10:45:20.079Z,97003.98
2019-04-01T10:46:23.783Z,97007.19
2019-04-01T10:47:27.535Z,97007.89
2019-04-01T10:48:32.125Z,97002.76
2019-04-01T10:49:35.865Z,97000.06
2019-04-01T10:50:39.594Z,96998.78
2019-04-01T10:51:43.596Z,96995.66
2019-04-01T10:52:47.287Z,96997.59
2019-04-01T10:53:51.040Z,97003.26
2019-04-01T10:54:54.889Z,96996.77
2019-04-01T10:55:58.527Z,96991.78
2019-04-01T10:57:02.211Z,96998.92
2019-04-01T10:58:05.861Z,96988.20
2019-04-01T10:59:09.542Z,96984.44
2019-04-01T11:00:13.754Z,96996.08
2019-04-01T11:01:17.599Z,96983.94
2019-04-01T11:02:21.266Z,96979.06
2019-04-01T11:03:25.224Z,96978.34
2019-04-01T11:04:28.925Z,96980.66
2019-04-01T11:05:32.730Z,96976.48
2019-04-01T11:06:36.399Z,96975.97
2019-04-01T11:07:40.127Z,96972.67
2019-04-01T11:08:43.780Z,96974.33
2019-04-01T11:09:47.444Z,96971.00
2019-04-01T11:10:51.111Z,96972.93
2019-04-01T11:11:55.164Z,96970.89
2019-04-01T11:12:59.551Z,96976.66
2019-04-01T11:14:03.299Z,96973.81
2019-04-01T11:15:09.011Z,96976.77
2019-04-01T11:16:12.668Z,96975.34
2019-04-01T11:17:16.316Z,96980.63
2019-04-01T11:18:20.106Z,96965.08
2019-04-01T11:19:24.149Z,96961.28
2019-04-01T11:20:27.793Z,96960.66
2019-04-01T11:21:31.500Z,96957.73
2019-04-01T11:22:56.152Z,96954.05
2019-04-01T11:23:59.793Z,96961.61
2019-04-01T11:25:04.586Z,96960.36
2019-04-01T11:26:08.268Z,96946.89
2019-04-01T11:27:11.971Z,96945.44
2019-04-01T11:28:15.832Z,96941.52
2019-04-01T11:29:19.826Z,96946.94
2019-04-01T11:30:23.484Z,96933.62
2019-04-01T11:31:27.145Z,96923.95
2019-04-01T11:32:32.396Z,96933.32
2019-04-01T11:33:36.017Z,96934.42
2019-04-01T11:34:39.703Z,96929.31
2019-04-01T11:35:43.381Z,96931.56
2019-04-01T11:36:47.054Z,96928.95
2019-04-01T11:37:50.794Z,96928.09
2019-04-01T11:38:54.470Z,96926.81
2019-04-01T11:39:58.122Z,96927.98
2019-04-01T11:41:01.737Z,96918.89
2019-04-01T11:42:05.405Z,96930.48
2019-04-01T11:43:09.199Z,96930.92
2019-04-01T11:44:13.059Z,96919.83
2019-04-01T11:45:16.841Z,96927.28
2019-04-01T11:46:20.496Z,96911.68
2019-04-01T11:47:24.169Z,96911.88
2019-04-01T11:48:27.661Z,96912.66
2019-04-01T11:49:31.324Z,96911.88
2019-04-01T11:50:35.008Z,96922.12
2019-04-01T11:51:40.228Z,96929.23
2019-04-01T11:52:44.117Z,96919.05
2019-04-01T11:53:47.840Z,96925.42
2019-04-01T11:54:51.563Z,96925.18
2019-04-01T11:55:55.232Z,96916.75
2019-04-01T11:56:58.898Z,96909.47
2019-04-01T11:58:02.532Z,96909.52
2019-04-01T11:59:06.289Z,96907.80
2019-04-01T12:00:13.409Z,96911.04
2019-04-01T12:01:17.320Z,96906.52
2019-04-01T12:02:21.071Z,96915.76
2019-04-01T12:03:24.703Z,96913.73
2019-04-01T12:04:28.384Z,96916.02
2019-04-01T12:05:32.157Z,96913.58
2019-04-01T12:06:35.823Z,96899.06
2019-04-01T12:07:39.504Z,96895.25
2019-04-01T12:08:43.157Z,96898.27
2019-04-01T12:09:46.804Z,96895.42
2019-04-01T12:10:50.441Z,96897.11
2019-04-01T12:11:54.106Z,96898.62
2019-04-01T12:12:57.771Z,96895.45
2019-04-01T12:14:04.921Z,96888.34
2019-04-01T12:15:07.316Z,96884.20
2019-04-01T12:16:11.046Z,96886.63
2019-04-01T12:17:14.665Z,96891.52
2019-04-01T12:18:18.459Z,96884.73
2019-04-01T12:19:22.125Z,96876.73
2019-04-01T12:20:25.801Z,96881.97
2019-04-01T12:21:29.438Z,96876.63
2019-04-01T12:22:33.100Z,96865.59
2019-04-01T12:23:36.764Z,96868.91
2019-04-01T12:24:40.508Z,96865.66
2019-04-01T12:25:44.184Z,96867.04
2019-04-01T12:26:47.895Z,96871.25
2019-04-01T12:27:51.554Z,96867.08
2019-04-01T12:28:55.180Z,96861.02
2019-04-01T12:29:58.865Z,96865.17
2019-04-01T12:31:02.507Z,96854.84